Saint Martins, Canada
Current Conditions -  °F | °C
As of 5:00 AM on Friday 19 Dec 2014 (Local Time) from CYSJ Reporting Station
Overcast Overcast  
Wind Chill: 13°   Ceiling: 4000
Heat Index: 27°   Visibility: 15mi
Dew Point: 25°   Wind: 18mph
Humidity: 93%   Direction: 310°NW
Pressure: 29.63"   Gusts: NA
Location:  45.35°N, 65.53°W
Report Text: CYSJ 190900Z 31016KT 15SM SCT015 OVC040 M03/M04 A2963 RMK NS3SC5 SLP040
Loading
Personal Weather Stations






























Interactive Weather Map New forecast layout! Learn more

10-Day Weather Forecast

Advertisements
Track Severe Weather on mobile